sensor_id;sensor_type;location;lat;lon;timestamp;pressure;altitude;pressure_sealevel;temperature;humidity
75594;BME280;64176;49.156;7.810;2023-07-13T00:00:08;99175.34;;;15.71;72.52
75594;BME280;64176;49.156;7.810;2023-07-13T00:02:58;99185.28;;;15.44;73.30
75594;BME280;64176;49.156;7.810;2023-07-13T00:05:42;99182.31;;;15.69;72.92
75594;BME280;64176;49.156;7.810;2023-07-13T00:08:30;99191.28;;;15.48;73.37
75594;BME280;64176;49.156;7.810;2023-07-13T00:11:16;99185.88;;;15.64;73.41
75594;BME280;64176;49.156;7.810;2023-07-13T00:14:01;99187.75;;;16.07;71.90
75594;BME280;64176;49.156;7.810;2023-07-13T00:16:45;99191.00;;;16.18;70.99
75594;BME280;64176;49.156;7.810;2023-07-13T00:19:30;99205.69;;;15.75;73.10
75594;BME280;64176;49.156;7.810;2023-07-13T00:22:14;99200.81;;;16.06;72.02
75594;BME280;64176;49.156;7.810;2023-07-13T00:24:58;99202.53;;;16.07;71.55
75594;BME280;64176;49.156;7.810;2023-07-13T00:27:43;99192.97;;;16.07;71.26
75594;BME280;64176;49.156;7.810;2023-07-13T00:30:27;99199.84;;;16.11;71.16
75594;BME280;64176;49.156;7.810;2023-07-13T00:33:11;99201.50;;;16.15;71.39
75594;BME280;64176;49.156;7.810;2023-07-13T00:35:57;99196.44;;;15.52;72.89
75594;BME280;64176;49.156;7.810;2023-07-13T00:38:43;99204.63;;;15.28;75.04
75594;BME280;64176;49.156;7.810;2023-07-13T00:41:27;99202.00;;;15.86;72.68
75594;BME280;64176;49.156;7.810;2023-07-13T00:44:15;99214.50;;;15.68;72.09
75594;BME280;64176;49.156;7.810;2023-07-13T00:46:59;99193.22;;;15.92;71.98
75594;BME280;64176;49.156;7.810;2023-07-13T00:49:43;99192.97;;;15.53;73.22
75594;BME280;64176;49.156;7.810;2023-07-13T00:52:27;99199.50;;;15.23;74.63
75594;BME280;64176;49.156;7.810;2023-07-13T00:55:12;99201.53;;;15.63;73.29
75594;BME280;64176;49.156;7.810;2023-07-13T00:57:58;99194.34;;;15.77;72.77
75594;BME280;64176;49.156;7.810;2023-07-13T01:00:43;99209.91;;;15.82;72.78
75594;BME280;64176;49.156;7.810;2023-07-13T01:03:28;99200.66;;;15.62;73.52
75594;BME280;64176;49.156;7.810;2023-07-13T01:06:13;99206.88;;;15.51;74.06
75594;BME280;64176;49.156;7.810;2023-07-13T01:08:58;99203.38;;;15.53;73.62
75594;BME280;64176;49.156;7.810;2023-07-13T01:11:44;99201.69;;;15.51;74.05
75594;BME280;64176;49.156;7.810;2023-07-13T01:14:29;99197.22;;;15.60;73.94
75594;BME280;64176;49.156;7.810;2023-07-13T01:17:16;99195.69;;;15.46;73.77
75594;BME280;64176;49.156;7.810;2023-07-13T01:20:04;99198.91;;;15.63;73.41
75594;BME280;64176;49.156;7.810;2023-07-13T01:22:48;99205.31;;;15.39;74.07
75594;BME280;64176;49.156;7.810;2023-07-13T01:25:34;99206.06;;;14.87;77.02
75594;BME280;64176;49.156;7.810;2023-07-13T01:28:19;99209.44;;;14.92;76.13
75594;BME280;64176;49.156;7.810;2023-07-13T01:31:04;99209.94;;;14.53;77.52
75594;BME280;64176;49.156;7.810;2023-07-13T01:33:53;99207.19;;;14.64;77.38
75594;BME280;64176;49.156;7.810;2023-07-13T01:36:38;99204.91;;;15.07;76.10
75594;BME280;64176;49.156;7.810;2023-07-13T01:39:23;99215.63;;;14.82;77.37
75594;BME280;64176;49.156;7.810;2023-07-13T01:42:07;99222.53;;;14.86;77.42
75594;BME280;64176;49.156;7.810;2023-07-13T01:44:54;99213.81;;;14.90;76.97
75594;BME280;64176;49.156;7.810;2023-07-13T01:47:38;99212.72;;;15.07;76.47
75594;BME280;64176;49.156;7.810;2023-07-13T01:50:22;99220.56;;;15.05;75.69
75594;BME280;64176;49.156;7.810;2023-07-13T01:53:09;99229.97;;;14.39;77.85
75594;BME280;64176;49.156;7.810;2023-07-13T01:55:53;99227.50;;;14.25;78.42
75594;BME280;64176;49.156;7.810;2023-07-13T01:58:37;99215.72;;;14.76;77.08
75594;BME280;64176;49.156;7.810;2023-07-13T02:01:20;99210.19;;;14.26;77.53
75594;BME280;64176;49.156;7.810;2023-07-13T02:04:04;99216.78;;;14.58;77.62
75594;BME280;64176;49.156;7.810;2023-07-13T02:06:50;99224.41;;;14.75;76.99
75594;BME280;64176;49.156;7.810;2023-07-13T02:09:37;99215.63;;;14.84;76.83
75594;BME280;64176;49.156;7.810;2023-07-13T02:12:21;99208.31;;;14.37;77.82
75594;BME280;64176;49.156;7.810;2023-07-13T02:15:05;99212.66;;;14.39;78.23
75594;BME280;64176;49.156;7.810;2023-07-13T02:17:50;99219.34;;;14.65;77.27
75594;BME280;64176;49.156;7.810;2023-07-13T02:20:34;99216.78;;;14.58;77.49
75594;BME280;64176;49.156;7.810;2023-07-13T02:23:18;99225.63;;;14.47;77.32
75594;BME280;64176;49.156;7.810;2023-07-13T02:26:04;99219.16;;;13.93;79.76
75594;BME280;64176;49.156;7.810;2023-07-13T02:28:48;99217.84;;;14.41;78.53
75594;BME280;64176;49.156;7.810;2023-07-13T02:31:32;99215.22;;;14.47;77.71
75594;BME280;64176;49.156;7.810;2023-07-13T02:34:19;99215.91;;;14.58;77.22
75594;BME280;64176;49.156;7.810;2023-07-13T02:37:03;99208.34;;;14.40;77.88
75594;BME280;64176;49.156;7.810;2023-07-13T02:39:47;99213.53;;;14.37;77.56
75594;BME280;64176;49.156;7.810;2023-07-13T02:42:31;99210.91;;;14.44;77.53
75594;BME280;64176;49.156;7.810;2023-07-13T02:45:15;99204.84;;;14.42;77.38
75594;BME280;64176;49.156;7.810;2023-07-13T02:47:59;99203.34;;;14.14;78.32
75594;BME280;64176;49.156;7.810;2023-07-13T02:50:44;99218.34;;;13.88;79.35
75594;BME280;64176;49.156;7.810;2023-07-13T02:53:28;99203.88;;;13.55;81.04
75594;BME280;64176;49.156;7.810;2023-07-13T02:56:12;99209.00;;;13.62;80.47
75594;BME280;64176;49.156;7.810;2023-07-13T02:58:56;99207.91;;;13.92;79.05
75594;BME280;64176;49.156;7.810;2023-07-13T03:01:41;99206.25;;;13.83;79.79
75594;BME280;64176;49.156;7.810;2023-07-13T03:04:29;99200.84;;;14.06;78.58
75594;BME280;64176;49.156;7.810;2023-07-13T03:07:15;99208.66;;;14.03;78.95
75594;BME280;64176;49.156;7.810;2023-07-13T03:10:00;99218.28;;;13.92;79.76
75594;BME280;64176;49.156;7.810;2023-07-13T03:12:55;99212.22;;;13.93;79.12
75594;BME280;64176;49.156;7.810;2023-07-13T03:15:42;99209.03;;;13.61;80.26
75594;BME280;64176;49.156;7.810;2023-07-13T03:18:29;99207.41;;;13.46;80.86
75594;BME280;64176;49.156;7.810;2023-07-13T03:21:17;99211.59;;;13.64;80.26
75594;BME280;64176;49.156;7.810;2023-07-13T03:24:04;99218.75;;;13.36;81.33
75594;BME280;64176;49.156;7.810;2023-07-13T03:26:48;99219.72;;;13.10;82.61
75594;BME280;64176;49.156;7.810;2023-07-13T03:29:33;99220.63;;;13.02;83.18
75594;BME280;64176;49.156;7.810;2023-07-13T03:32:18;99219.69;;;13.17;82.67
75594;BME280;64176;49.156;7.810;2023-07-13T03:35:02;99216.88;;;13.53;80.55
75594;BME280;64176;49.156;7.810;2023-07-13T03:37:49;99223.13;;;13.23;81.70
75594;BME280;64176;49.156;7.810;2023-07-13T03:40:37;99221.22;;;13.53;80.02
75594;BME280;64176;49.156;7.810;2023-07-13T03:43:22;99242.91;;;13.44;80.52
75594;BME280;64176;49.156;7.810;2023-07-13T03:46:11;99238.72;;;13.17;82.03
75594;BME280;64176;49.156;7.810;2023-07-13T03:48:55;99235.91;;;13.55;80.47
75594;BME280;64176;49.156;7.810;2023-07-13T03:51:39;99235.75;;;13.75;79.93
75594;BME280;64176;49.156;7.810;2023-07-13T03:54:23;99233.16;;;13.75;79.75
75594;BME280;64176;49.156;7.810;2023-07-13T03:57:08;99234.09;;;13.68;79.28
75594;BME280;64176;49.156;7.810;2023-07-13T03:59:54;99241.09;;;13.54;79.43
75594;BME280;64176;49.156;7.810;2023-07-13T04:02:38;99246.44;;;13.29;81.07
75594;BME280;64176;49.156;7.810;2023-07-13T04:05:22;99243.78;;;13.44;80.48
75594;BME280;64176;49.156;7.810;2023-07-13T04:08:07;99243.94;;;13.08;81.40
75594;BME280;64176;49.156;7.810;2023-07-13T04:10:51;99243.06;;;13.18;81.47
75594;BME280;64176;49.156;7.810;2023-07-13T04:13:37;99248.16;;;13.35;80.73
75594;BME280;64176;49.156;7.810;2023-07-13T04:16:21;99247.38;;;13.22;80.96
75594;BME280;64176;49.156;7.810;2023-07-13T04:19:05;99249.91;;;13.27;81.15
75594;BME280;64176;49.156;7.810;2023-07-13T04:21:49;99251.72;;;13.08;82.83
75594;BME280;64176;49.156;7.810;2023-07-13T04:24:33;99255.97;;;13.27;81.94
75594;BME280;64176;49.156;7.810;2023-07-13T04:27:19;99264.53;;;13.44;80.90
75594;BME280;64176;49.156;7.810;2023-07-13T04:30:04;99267.22;;;13.32;81.40
75594;BME280;64176;49.156;7.810;2023-07-13T04:32:49;99261.97;;;13.38;80.67
75594;BME280;64176;49.156;7.810;2023-07-13T04:35:34;99266.22;;;13.55;79.96
75594;BME280;64176;49.156;7.810;2023-07-13T04:38:20;99255.81;;;13.56;80.23
75594;BME280;64176;49.156;7.810;2023-07-13T04:41:08;99254.06;;;13.58;80.25
75594;BME280;64176;49.156;7.810;2023-07-13T04:43:52;99258.34;;;13.67;79.71
75594;BME280;64176;49.156;7.810;2023-07-13T04:46:37;99255.00;;;13.46;80.51
75594;BME280;64176;49.156;7.810;2023-07-13T04:49:21;99258.47;;;13.45;80.70
75594;BME280;64176;49.156;7.810;2023-07-13T04:52:06;99269.91;;;13.14;81.77
75594;BME280;64176;49.156;7.810;2023-07-13T04:54:53;99268.16;;;13.08;82.48
75594;BME280;64176;49.156;7.810;2023-07-13T04:57:37;99275.03;;;13.25;81.93
75594;BME280;64176;49.156;7.810;2023-07-13T05:00:21;99283.69;;;13.22;82.61
75594;BME280;64176;49.156;7.810;2023-07-13T05:03:05;99275.78;;;13.46;81.71
75594;BME280;64176;49.156;7.810;2023-07-13T05:06:01;99280.59;;;14.01;79.46
75594;BME280;64176;49.156;7.810;2023-07-13T05:08:45;99269.13;;;14.24;78.55
75594;BME280;64176;49.156;7.810;2023-07-13T05:11:29;99273.59;;;14.06;78.89
75594;BME280;64176;49.156;7.810;2023-07-13T05:14:13;99280.06;;;13.57;81.47
75594;BME280;64176;49.156;7.810;2023-07-13T05:16:57;99274.38;;;14.19;78.97
75594;BME280;64176;49.156;7.810;2023-07-13T05:19:41;99283.78;;;14.34;78.45
75594;BME280;64176;49.156;7.810;2023-07-13T05:22:26;99275.81;;;14.53;76.84
75594;BME280;64176;49.156;7.810;2023-07-13T05:25:10;99281.00;;;14.53;77.21
75594;BME280;64176;49.156;7.810;2023-07-13T05:27:54;99288.81;;;14.52;77.44
75594;BME280;64176;49.156;7.810;2023-07-13T05:30:38;99283.41;;;14.73;76.55
75594;BME280;64176;49.156;7.810;2023-07-13T05:33:23;99289.28;;;14.90;76.08
75594;BME280;64176;49.156;7.810;2023-07-13T05:36:07;99290.03;;;15.00;76.08
75594;BME280;64176;49.156;7.810;2023-07-13T05:38:52;99287.44;;;14.99;76.16
75594;BME280;64176;49.156;7.810;2023-07-13T05:41:36;99277.63;;;15.22;75.33
75594;BME280;64176;49.156;7.810;2023-07-13T05:44:20;99279.25;;;15.30;75.48
75594;BME280;64176;49.156;7.810;2023-07-13T05:47:04;99280.97;;;15.32;74.91
75594;BME280;64176;49.156;7.810;2023-07-13T05:49:48;99283.94;;;15.69;73.48
75594;BME280;64176;49.156;7.810;2023-07-13T05:52:34;99279.34;;;15.84;72.47
75594;BME280;64176;49.156;7.810;2023-07-13T05:55:21;99285.31;;;15.92;72.47
75594;BME280;64176;49.156;7.810;2023-07-13T05:58:06;99288.84;;;15.90;73.00
75594;BME280;64176;49.156;7.810;2023-07-13T06:01:03;99291.69;;;15.73;72.54
75594;BME280;64176;49.156;7.810;2023-07-13T06:03:47;99287.81;;;16.00;71.94
75594;BME280;64176;49.156;7.810;2023-07-13T06:06:32;99299.84;;;16.58;69.96
75594;BME280;64176;49.156;7.810;2023-07-13T06:09:18;99301.38;;;17.16;68.24
75594;BME280;64176;49.156;7.810;2023-07-13T06:12:05;99290.97;;;17.13;68.43
75594;BME280;64176;49.156;7.810;2023-07-13T06:14:49;99299.97;;;17.41;68.59
75594;BME280;64176;49.156;7.810;2023-07-13T06:17:33;99303.47;;;17.40;68.53
75594;BME280;64176;49.156;7.810;2023-07-13T06:20:17;99306.00;;;17.85;66.34
75594;BME280;64176;49.156;7.810;2023-07-13T06:23:01;99311.28;;;18.18;64.75
75594;BME280;64176;49.156;7.810;2023-07-13T06:25:45;99309.06;;;18.37;64.14
75594;BME280;64176;49.156;7.810;2023-07-13T06:28:33;99317.53;;;18.47;63.74
75594;BME280;64176;49.156;7.810;2023-07-13T06:31:17;99312.66;;;18.67;63.08
75594;BME280;64176;49.156;7.810;2023-07-13T06:34:01;99320.50;;;19.32;60.98
75594;BME280;64176;49.156;7.810;2023-07-13T06:36:47;99303.47;;;21.98;52.62
75594;BME280;64176;49.156;7.810;2023-07-13T06:39:32;99310.59;;;22.80;50.27
75594;BME280;64176;49.156;7.810;2023-07-13T06:42:17;99313.78;;;22.67;50.52
75594;BME280;64176;49.156;7.810;2023-07-13T06:45:04;99314.72;;;23.06;48.68
75594;BME280;64176;49.156;7.810;2023-07-13T06:47:48;99306.28;;;22.78;48.52
75594;BME280;64176;49.156;7.810;2023-07-13T06:50:34;99312.50;;;23.55;47.07
75594;BME280;64176;49.156;7.810;2023-07-13T06:53:21;99325.84;;;23.13;46.45
75594;BME280;64176;49.156;7.810;2023-07-13T06:56:06;99323.66;;;23.22;46.29
75594;BME280;64176;49.156;7.810;2023-07-13T06:58:50;99322.59;;;23.45;45.54
75594;BME280;64176;49.156;7.810;2023-07-13T07:01:36;99316.56;;;24.36;44.01
75594;BME280;64176;49.156;7.810;2023-07-13T07:04:20;99322.06;;;23.95;44.17
75594;BME280;64176;49.156;7.810;2023-07-13T07:07:04;99307.78;;;24.35;42.87
75594;BME280;64176;49.156;7.810;2023-07-13T07:09:48;99314.81;;;23.99;44.71
75594;BME280;64176;49.156;7.810;2023-07-13T07:12:33;99312.19;;;24.86;42.11
75594;BME280;64176;49.156;7.810;2023-07-13T07:15:17;99313.75;;;25.08;40.84
75594;BME280;64176;49.156;7.810;2023-07-13T07:18:02;99313.69;;;24.92;41.13
75594;BME280;64176;49.156;7.810;2023-07-13T07:20:46;99317.66;;;25.00;40.64
75594;BME280;64176;49.156;7.810;2023-07-13T07:23:30;99318.72;;;25.14;40.42
75594;BME280;64176;49.156;7.810;2023-07-13T07:26:14;99318.50;;;25.18;40.52
75594;BME280;64176;49.156;7.810;2023-07-13T07:28:59;99320.91;;;24.54;42.05
75594;BME280;64176;49.156;7.810;2023-07-13T07:31:46;99330.94;;;22.97;43.55
75594;BME280;64176;49.156;7.810;2023-07-13T07:34:30;99325.72;;;24.10;41.50
75594;BME280;64176;49.156;7.810;2023-07-13T07:37:14;99333.28;;;23.63;43.61
75594;BME280;64176;49.156;7.810;2023-07-13T07:39:58;99333.50;;;22.78;44.74
75594;BME280;64176;49.156;7.810;2023-07-13T07:42:43;99331.06;;;23.33;44.39
75594;BME280;64176;49.156;7.810;2023-07-13T07:45:27;99338.69;;;23.00;45.41
75594;BME280;64176;49.156;7.810;2023-07-13T07:48:11;99338.13;;;22.94;45.04
75594;BME280;64176;49.156;7.810;2023-07-13T07:50:56;99340.91;;;22.48;44.77
75594;BME280;64176;49.156;7.810;2023-07-13T07:53:39;99353.84;;;21.88;45.72
75594;BME280;64176;49.156;7.810;2023-07-13T07:56:23;99344.81;;;21.73;46.08
75594;BME280;64176;49.156;7.810;2023-07-13T07:59:07;99333.38;;;21.96;45.65
75594;BME280;64176;49.156;7.810;2023-07-13T08:01:51;99337.63;;;22.22;45.84
75594;BME280;64176;49.156;7.810;2023-07-13T08:04:35;99344.13;;;22.97;43.55
75594;BME280;64176;49.156;7.810;2023-07-13T08:07:19;99347.97;;;22.68;42.72
75594;BME280;64176;49.156;7.810;2023-07-13T08:10:04;99345.06;;;22.96;42.02
75594;BME280;64176;49.156;7.810;2023-07-13T08:12:48;99344.47;;;22.47;42.82
75594;BME280;64176;49.156;7.810;2023-07-13T08:15:32;99345.00;;;22.34;43.41
75594;BME280;64176;49.156;7.810;2023-07-13T08:18:16;99342.25;;;22.37;42.54
75594;BME280;64176;49.156;7.810;2023-07-13T08:21:04;99351.31;;;22.51;42.43
75594;BME280;64176;49.156;7.810;2023-07-13T08:23:48;99346.69;;;22.78;41.35
75594;BME280;64176;49.156;7.810;2023-07-13T08:26:35;99330.66;;;23.03;41.14
75594;BME280;64176;49.156;7.810;2023-07-13T08:29:20;99340.00;;;22.70;41.73
75594;BME280;64176;49.156;7.810;2023-07-13T08:32:07;99354.63;;;22.35;41.92
75594;BME280;64176;49.156;7.810;2023-07-13T08:34:54;99348.69;;;22.51;41.99
75594;BME280;64176;49.156;7.810;2023-07-13T08:37:41;99345.91;;;22.55;41.60
75594;BME280;64176;49.156;7.810;2023-07-13T08:40:27;99331.19;;;22.91;40.56
75594;BME280;64176;49.156;7.810;2023-07-13T08:43:20;99338.16;;;23.12;40.46
75594;BME280;64176;49.156;7.810;2023-07-13T08:49:00;99330.81;;;22.80;41.46
75594;BME280;64176;49.156;7.810;2023-07-13T08:51:49;99329.28;;;22.74;41.17
75594;BME280;64176;49.156;7.810;2023-07-13T08:54:37;99334.13;;;23.43;40.53
75594;BME280;64176;49.156;7.810;2023-07-13T08:57:30;99331.41;;;23.07;40.95
75594;BME280;64176;49.156;7.810;2023-07-13T09:00:15;99338.16;;;23.12;40.19
75594;BME280;64176;49.156;7.810;2023-07-13T09:03:01;99332.72;;;22.34;40.93
75594;BME280;64176;49.156;7.810;2023-07-13T09:05:55;99331.47;;;23.05;40.31
75594;BME280;64176;49.156;7.810;2023-07-13T09:11:36;99333.44;;;23.00;40.33
75594;BME280;64176;49.156;7.810;2023-07-13T09:17:46;99329.53;;;22.26;40.56
75594;BME280;64176;49.156;7.810;2023-07-13T09:20:39;99332.81;;;22.53;40.55
75594;BME280;64176;49.156;7.810;2023-07-13T09:23:28;99335.00;;;22.64;40.87
75594;BME280;64176;49.156;7.810;2023-07-13T09:26:18;99338.56;;;22.63;41.44
75594;BME280;64176;49.156;7.810;2023-07-13T09:29:20;99331.94;;;22.95;40.56
75594;BME280;64176;49.156;7.810;2023-07-13T09:32:07;99332.19;;;22.46;41.43
75594;BME280;64176;49.156;7.810;2023-07-13T09:34:54;99327.13;;;22.84;40.69
75594;BME280;64176;49.156;7.810;2023-07-13T09:37:38;99330.16;;;22.95;40.24
75594;BME280;64176;49.156;7.810;2023-07-13T09:40:28;99337.19;;;23.54;40.21
75594;BME280;64176;49.156;7.810;2023-07-13T09:43:15;99327.84;;;23.08;39.32
75594;BME280;64176;49.156;7.810;2023-07-13T09:46:00;99329.47;;;23.10;38.22
75594;BME280;64176;49.156;7.810;2023-07-13T09:48:43;99334.75;;;23.49;39.01
75594;BME280;64176;49.156;7.810;2023-07-13T09:51:28;99325.00;;;23.31;38.39
75594;BME280;64176;49.156;7.810;2023-07-13T09:54:20;99329.84;;;23.21;38.15
75594;BME280;64176;49.156;7.810;2023-07-13T09:57:15;99316.66;;;23.21;37.31
75594;BME280;64176;49.156;7.810;2023-07-13T09:59:59;99322.50;;;23.67;37.47
75594;BME280;64176;49.156;7.810;2023-07-13T10:02:44;99326.28;;;23.22;37.87
75594;BME280;64176;49.156;7.810;2023-07-13T10:05:37;99330.91;;;23.17;38.05
75594;BME280;64176;49.156;7.810;2023-07-13T10:08:26;99333.44;;;22.80;38.66
75594;BME280;64176;49.156;7.810;2023-07-13T10:11:19;99333.19;;;22.86;38.80
75594;BME280;64176;49.156;7.810;2023-07-13T10:17:00;99332.50;;;23.01;38.27
75594;BME280;64176;49.156;7.810;2023-07-13T10:19:47;99328.81;;;23.44;36.79
75594;BME280;64176;49.156;7.810;2023-07-13T10:25:38;99330.66;;;23.42;36.81
75594;BME280;64176;49.156;7.810;2023-07-13T10:28:30;99325.44;;;23.61;35.99
75594;BME280;64176;49.156;7.810;2023-07-13T10:31:16;99327.53;;;23.53;36.33
75594;BME280;64176;49.156;7.810;2023-07-13T10:34:00;99319.16;;;23.82;36.01
75594;BME280;64176;49.156;7.810;2023-07-13T10:36:47;99315.31;;;24.43;35.73
75594;BME280;64176;49.156;7.810;2023-07-13T10:39:34;99306.59;;;24.23;34.75
75594;BME280;64176;49.156;7.810;2023-07-13T10:42:30;99322.53;;;24.03;34.32
75594;BME280;64176;49.156;7.810;2023-07-13T10:45:22;99324.38;;;24.01;35.01
75594;BME280;64176;49.156;7.810;2023-07-13T10:48:09;99327.09;;;23.64;36.01
75594;BME280;64176;49.156;7.810;2023-07-13T10:50:56;99331.06;;;23.33;36.63
75594;BME280;64176;49.156;7.810;2023-07-13T10:53:43;99320.28;;;23.95;35.75
75594;BME280;64176;49.156;7.810;2023-07-13T10:56:29;99317.00;;;23.72;35.91
75594;BME280;64176;49.156;7.810;2023-07-13T10:59:27;99323.22;;;23.52;35.34
75594;BME280;64176;49.156;7.810;2023-07-13T11:02:21;99317.53;;;23.97;34.84
75594;BME280;64176;49.156;7.810;2023-07-13T11:05:26;99323.94;;;23.35;35.45
75594;BME280;64176;49.156;7.810;2023-07-13T11:08:32;99331.44;;;23.44;35.54
75594;BME280;64176;49.156;7.810;2023-07-13T11:17:50;99324.50;;;23.62;36.17
75594;BME280;64176;49.156;7.810;2023-07-13T11:20:37;99337.41;;;23.68;36.19
75594;BME280;64176;49.156;7.810;2023-07-13T11:23:30;99325.47;;;23.41;36.34
75594;BME280;64176;49.156;7.810;2023-07-13T11:29:44;99321.78;;;23.82;36.28
75594;BME280;64176;49.156;7.810;2023-07-13T11:32:31;99309.88;;;23.16;35.37
75594;BME280;64176;49.156;7.810;2023-07-13T11:35:22;99303.44;;;23.79;34.78
75594;BME280;64176;49.156;7.810;2023-07-13T11:38:15;99312.78;;;23.86;34.88
75594;BME280;64176;49.156;7.810;2023-07-13T11:41:03;99298.69;;;24.05;34.86
75594;BME280;64176;49.156;7.810;2023-07-13T11:43:54;99308.00;;;23.94;34.79
75594;BME280;64176;49.156;7.810;2023-07-13T11:46:38;99308.66;;;23.81;35.00
75594;BME280;64176;49.156;7.810;2023-07-13T11:49:30;99299.44;;;23.89;35.36
75594;BME280;64176;49.156;7.810;2023-07-13T11:52:18;99306.38;;;24.45;34.76
75594;BME280;64176;49.156;7.810;2023-07-13T11:55:13;99317.38;;;23.83;34.53
75594;BME280;64176;49.156;7.810;2023-07-13T11:58:00;99313.50;;;23.90;34.96
75594;BME280;64176;49.156;7.810;2023-07-13T12:00:47;99313.03;;;23.63;35.44
75594;BME280;64176;49.156;7.810;2023-07-13T12:03:36;99323.56;;;23.24;35.84
75594;BME280;64176;49.156;7.810;2023-07-13T12:06:32;99320.81;;;23.46;35.54
75594;BME280;64176;49.156;7.810;2023-07-13T12:09:16;99323.44;;;23.85;35.31
75594;BME280;64176;49.156;7.810;2023-07-13T12:12:00;99316.25;;;24.06;34.80
75594;BME280;64176;49.156;7.810;2023-07-13T12:14:45;99315.41;;;24.58;34.52
75594;BME280;64176;49.156;7.810;2023-07-13T12:17:29;99302.97;;;25.28;33.12
75594;BME280;64176;49.156;7.810;2023-07-13T12:20:20;99311.50;;;24.31;35.07
75594;BME280;64176;49.156;7.810;2023-07-13T12:23:20;99330.63;;;23.23;37.39
75594;BME280;64176;49.156;7.810;2023-07-13T12:26:06;99337.56;;;23.45;37.22
75594;BME280;64176;49.156;7.810;2023-07-13T12:28:57;99333.41;;;23.20;38.03
75594;BME280;64176;49.156;7.810;2023-07-13T12:31:44;99331.66;;;23.40;37.77
75594;BME280;64176;49.156;7.810;2023-07-13T12:34:28;99335.06;;;23.42;37.42
75594;BME280;64176;49.156;7.810;2023-07-13T12:37:12;99332.81;;;23.14;37.70
75594;BME280;64176;49.156;7.810;2023-07-13T12:39:59;99340.66;;;23.54;37.57
75594;BME280;64176;49.156;7.810;2023-07-13T12:42:43;99342.25;;;23.77;37.47
75594;BME280;64176;49.156;7.810;2023-07-13T12:45:27;99343.53;;;23.69;37.18
75594;BME280;64176;49.156;7.810;2023-07-13T12:48:15;99337.38;;;23.49;36.76
75594;BME280;64176;49.156;7.810;2023-07-13T12:51:00;99334.34;;;23.96;36.48
75594;BME280;64176;49.156;7.810;2023-07-13T12:53:50;99332.00;;;23.52;36.99
75594;BME280;64176;49.156;7.810;2023-07-13T12:56:40;99330.91;;;23.94;36.28
75594;BME280;64176;49.156;7.810;2023-07-13T12:59:29;99344.09;;;23.94;37.27
75594;BME280;64176;49.156;7.810;2023-07-13T13:02:30;99330.63;;;23.81;37.32
75594;BME280;64176;49.156;7.810;2023-07-13T13:05:16;99335.09;;;23.98;36.49
75594;BME280;64176;49.156;7.810;2023-07-13T13:08:03;99322.66;;;24.19;36.74
75594;BME280;64176;49.156;7.810;2023-07-13T13:10:50;99333.88;;;23.49;37.02
75594;BME280;64176;49.156;7.810;2023-07-13T13:13:34;99335.41;;;23.92;36.95
75594;BME280;64176;49.156;7.810;2023-07-13T13:16:37;99328.69;;;24.04;35.93
75594;BME280;64176;49.156;7.810;2023-07-13T13:19:28;99328.16;;;24.14;36.12
75594;BME280;64176;49.156;7.810;2023-07-13T13:22:13;99331.16;;;24.25;35.72
75594;BME280;64176;49.156;7.810;2023-07-13T13:24:57;99323.59;;;23.63;36.16
75594;BME280;64176;49.156;7.810;2023-07-13T13:27:42;99332.09;;;24.06;35.61
75594;BME280;64176;49.156;7.810;2023-07-13T13:30:27;99335.50;;;23.72;36.01
75594;BME280;64176;49.156;7.810;2023-07-13T13:33:13;99332.81;;;23.90;37.87
75594;BME280;64176;49.156;7.810;2023-07-13T13:36:00;99328.91;;;23.80;35.37
75594;BME280;64176;49.156;7.810;2023-07-13T13:38:48;99322.66;;;24.19;36.31
75594;BME280;64176;49.156;7.810;2023-07-13T13:41:32;99323.94;;;24.29;35.82
75594;BME280;64176;49.156;7.810;2023-07-13T13:44:17;99316.88;;;24.11;36.08
75594;BME280;64176;49.156;7.810;2023-07-13T13:47:01;99320.34;;;23.94;35.75
75594;BME280;64176;49.156;7.810;2023-07-13T13:49:46;99327.56;;;23.72;36.13
75594;BME280;64176;49.156;7.810;2023-07-13T13:52:31;99331.06;;;23.33;36.38
75594;BME280;64176;49.156;7.810;2023-07-13T13:55:20;99334.69;;;23.70;36.64
75594;BME280;64176;49.156;7.810;2023-07-13T13:58:05;99332.91;;;23.89;36.15
75594;BME280;64176;49.156;7.810;2023-07-13T14:00:50;99331.50;;;23.63;36.41
75594;BME280;64176;49.156;7.810;2023-07-13T14:03:34;99332.25;;;24.03;35.61
75594;BME280;64176;49.156;7.810;2023-07-13T14:06:18;99342.38;;;23.93;36.30
75594;BME280;64176;49.156;7.810;2023-07-13T14:09:08;99333.09;;;24.22;35.80
75594;BME280;64176;49.156;7.810;2023-07-13T14:11:56;99331.91;;;23.91;36.74
75594;BME280;64176;49.156;7.810;2023-07-13T14:14:41;99325.66;;;24.11;37.19
75594;BME280;64176;49.156;7.810;2023-07-13T14:17:27;99335.66;;;24.05;36.64
75594;BME280;64176;49.156;7.810;2023-07-13T14:20:12;99339.63;;;23.96;36.28
75594;BME280;64176;49.156;7.810;2023-07-13T14:22:57;99342.38;;;23.93;36.25
75594;BME280;64176;49.156;7.810;2023-07-13T14:25:41;99342.81;;;24.03;35.49
75594;BME280;64176;49.156;7.810;2023-07-13T14:28:26;99326.31;;;24.16;35.69
75594;BME280;64176;49.156;7.810;2023-07-13T14:31:13;99327.88;;;24.02;35.65
75594;BME280;64176;49.156;7.810;2023-07-13T14:33:58;99337.56;;;23.84;35.77
75594;BME280;64176;49.156;7.810;2023-07-13T14:36:44;99338.19;;;23.70;35.79
75594;BME280;64176;49.156;7.810;2023-07-13T14:39:29;99339.88;;;23.90;35.96
75594;BME280;64176;49.156;7.810;2023-07-13T14:42:13;99325.91;;;23.88;35.36
75594;BME280;64176;49.156;7.810;2023-07-13T14:44:57;99333.06;;;23.86;35.23
75594;BME280;64176;49.156;7.810;2023-07-13T14:47:41;99333.78;;;23.71;35.63
75594;BME280;64176;49.156;7.810;2023-07-13T14:50:32;99336.19;;;23.94;35.91
75594;BME280;64176;49.156;7.810;2023-07-13T14:53:16;99327.28;;;24.14;36.50
75594;BME280;64176;49.156;7.810;2023-07-13T14:56:00;99323.16;;;24.08;35.90
75594;BME280;64176;49.156;7.810;2023-07-13T14:58:46;99324.28;;;24.21;35.72
75594;BME280;64176;49.156;7.810;2023-07-13T15:01:31;99320.06;;;23.81;36.08
75594;BME280;64176;49.156;7.810;2023-07-13T15:04:15;99308.47;;;24.03;36.10